Time;durP1;ratioP1;P1;durP2;ratioP2;P2;SDS_P1;SDS_P2;PMS_P1;PMS_P2;Temp;Humidity;BMP_temperature;BMP_pressure;BME280_temperature;BME280_humidity;BME280_pressure;Samples;Min_cycle;Max_cycle;Signal;HPM_P1;HPM_P2
2021/11/07 00:05:06;;;;;;;13.30;9.77;;;;;;;12.75;71.92;102436.66;5088319;28;20196;-66
2021/11/07 00:11:18;;;;;;;13.87;9.30;;;;;;;12.81;71.91;102470.44;5088502;28;20190;-66
2021/11/07 00:15:39;;;;;;;12.47;9.00;;;;;;;12.13;72.14;102349.50;5087839;28;20173;-66
2021/11/07 00:18:11;;;;;;;12.60;9.60;;;;;;;12.86;72.19;102476.38;5087691;28;20645;-66
2021/11/07 00:20:43;;;;;;;14.40;10.07;;;;;;;11.93;72.44;102328.91;5088447;28;20162;-66
2021/11/07 00:28:40;;;;;;;13.27;10.20;;;;;;;12.95;72.71;102476.75;5009775;28;20368;-66
2021/11/07 00:36:28;;;;;;;15.87;10.30;;;;;;;12.90;72.66;102473.56;5047925;28;20187;-66
2021/11/07 00:41:43;;;;;;;14.73;11.03;;;;;;;12.98;72.47;102469.59;5047587;28;20180;-66
2021/11/07 00:44:14;;;;;;;13.33;8.30;;;;;;;12.96;72.39;102472.78;5047198;28;20171;-66
2021/11/07 00:46:50;;;;;;;8.97;7.33;;;;;;;12.93;72.06;102454.09;5059665;28;20250;-66
2021/11/07 00:49:24;;;;;;;11.27;8.93;;;;;;;13.08;72.00;102475.13;5066889;28;20160;-65
2021/11/07 00:56:55;;;;;;;12.03;8.33;;;;;;;13.04;71.82;102457.66;5066784;28;20184;-66
2021/11/07 01:02:18;;;;;;;16.13;9.13;;;;;;;12.93;72.28;102437.41;5086364;28;20183;-66
2021/11/07 01:04:46;;;;;;;11.43;8.97;;;;;;;12.90;72.20;102438.19;5086349;28;20235;-66
2021/11/07 01:07:13;;;;;;;13.77;9.70;;;;;;;12.16;72.43;102325.66;5090413;28;20199;-66
2021/11/07 01:09:39;;;;;;;12.43;9.70;;;;;;;12.74;72.59;102449.00;5089020;28;20217;-66
2021/11/07 01:12:06;;;;;;;11.77;8.83;;;;;;;12.58;72.67;102447.88;5090759;28;20203;-66
2021/11/07 01:14:31;;;;;;;12.07;8.83;;;;;;;12.30;72.68;102376.44;5090046;28;20620;-66
2021/11/07 01:16:58;;;;;;;11.13;9.13;;;;;;;12.62;72.93;102415.28;5091241;28;20207;-66
2021/11/07 01:19:23;;;;;;;11.37;8.53;;;;;;;12.52;72.67;102400.22;5091292;28;20186;-66
2021/11/07 01:21:49;;;;;;;10.57;8.60;;;;;;;12.60;73.02;102410.09;5090573;28;20178;-66
2021/11/07 01:24:36;;;;;;;10.03;8.47;;;;;;;12.64;72.89;102396.97;5089810;28;20175;-66
2021/11/07 01:29:44;;;;;;;12.23;8.80;;;;;;;12.69;72.47;102398.53;5090813;28;20220;-66
2021/11/07 01:32:10;;;;;;;11.07;8.27;;;;;;;12.71;72.73;102385.03;5089784;28;20644;-66
2021/11/07 01:37:22;;;;;;;11.90;8.43;;;;;;;12.48;72.26;102346.59;5091069;28;20563;-66
2021/11/07 01:44:55;;;;;;;10.47;8.47;;;;;;;12.75;72.70;102391.38;5090395;28;20751;-66
2021/11/07 01:47:21;;;;;;;9.57;8.43;;;;;;;12.81;72.38;102387.75;5084976;28;20232;-66
2021/11/07 01:49:47;;;;;;;10.23;8.90;;;;;;;12.83;72.02;102377.03;5071226;28;20268;-66
2021/11/07 01:52:14;;;;;;;10.37;8.90;;;;;;;12.68;72.46;102355.25;5067856;28;20272;-66
2021/11/07 01:57:37;;;;;;;16.03;9.93;;;;;;;12.68;72.27;102400.56;5070236;28;20181;-66
2021/11/07 02:00:20;;;;;;;11.17;9.63;;;;;;;12.13;72.28;102359.81;5082504;28;20168;-66
2021/11/07 02:02:46;;;;;;;14.10;10.23;;;;;;;12.25;72.51;102398.31;5088321;28;20166;-65
2021/11/07 02:05:12;;;;;;;12.23;9.70;;;;;;;12.02;72.73;102361.84;5089327;28;20656;-66
2021/11/07 02:07:38;;;;;;;10.97;9.30;;;;;;;11.85;72.99;102327.34;5090932;28;20688;-65
2021/11/07 02:10:06;;;;;;;11.93;8.30;;;;;;;12.58;73.00;102417.25;5091144;28;20183;-66
2021/11/07 02:12:32;;;;;;;10.40;8.50;;;;;;;12.62;72.78;102429.97;5088824;28;20190;-66
2021/11/07 02:14:58;;;;;;;10.30;9.13;;;;;;;12.67;72.80;102409.28;5089011;28;20175;-66
2021/11/07 02:17:23;;;;;;;10.83;8.67;;;;;;;12.65;73.16;102415.25;5089598;28;20175;-65
2021/11/07 02:19:50;;;;;;;14.30;10.33;;;;;;;12.68;72.98;102417.25;5090457;28;20199;-65
2021/11/07 02:22:16;;;;;;;10.93;8.90;;;;;;;12.66;73.49;102416.84;5089125;28;20189;-66
2021/11/07 02:24:42;;;;;;;14.00;10.17;;;;;;;12.68;73.39;102417.25;5087655;28;20184;-66
2021/11/07 02:27:08;;;;;;;18.73;11.90;;;;;;;12.56;73.33;102414.88;5089954;28;20179;-67
2021/11/07 02:29:36;;;;;;;15.87;12.80;;;;;;;12.50;74.03;102404.59;5089628;28;20253;-65
2021/11/07 02:32:04;;;;;;;19.33;13.53;;;;;;;11.62;74.08;102282.56;5089613;28;20183;-66
2021/11/07 02:34:31;;;;;;;16.53;12.37;;;;;;;12.49;74.30;102419.69;5088201;28;20187;-66
2021/11/07 02:36:57;;;;;;;26.50;17.40;;;;;;;12.34;75.11;102415.38;5089504;28;20758;-66
2021/11/07 02:39:24;;;;;;;24.30;19.27;;;;;;;12.42;76.10;102430.84;5089480;28;20191;-66
2021/11/07 02:41:50;;;;;;;26.40;19.60;;;;;;;12.50;76.05;102426.84;5089642;28;20206;-66
2021/11/07 02:44:37;;;;;;;24.63;20.17;;;;;;;11.36;76.48;102249.66;5089205;28;20259;-66
2021/11/07 02:47:05;;;;;;;26.07;19.07;;;;;;;12.37;76.67;102407.03;5088674;28;20276;-65
2021/11/07 02:49:31;;;;;;;23.97;20.03;;;;;;;12.44;76.68;102409.78;5089660;28;20756;-65
2021/11/07 02:51:59;;;;;;;23.33;20.03;;;;;;;12.51;76.90;102404.16;5089378;28;20179;-66
2021/11/07 02:54:26;;;;;;;26.43;20.07;;;;;;;12.56;76.97;102406.53;5088535;28;20286;-66
2021/11/07 02:56:52;;;;;;;25.37;21.10;;;;;;;12.61;76.61;102413.69;5088127;28;20625;-65
2021/11/07 02:59:21;;;;;;;25.00;20.03;;;;;;;12.67;76.98;102421.22;5087346;28;20252;-66
2021/11/07 03:01:47;;;;;;;24.80;21.33;;;;;;;12.74;76.67;102418.41;5088593;28;20182;-66
2021/11/07 03:04:12;;;;;;;28.03;22.13;;;;;;;12.76;76.42;102426.34;5088554;28;20178;-66
2021/11/07 03:06:38;;;;;;;26.63;22.33;;;;;;;12.62;76.33;102432.75;5088248;28;20182;-66
2021/11/07 03:09:05;;;;;;;25.57;22.03;;;;;;;12.66;76.30;102429.97;5089783;28;20692;-66
2021/11/07 03:11:39;;;;;;;25.77;21.30;;;;;;;12.71;76.13;102432.34;5088864;28;20182;-65
2021/11/07 03:14:06;;;;;;;26.93;21.23;;;;;;;12.71;76.14;102435.88;5088857;28;20159;-65
2021/11/07 03:16:31;;;;;;;27.07;20.70;;;;;;;12.78;75.66;102429.50;5088828;28;20183;-65
2021/11/07 03:18:57;;;;;;;23.63;19.00;;;;;;;12.74;75.52;102434.28;5088768;28;20182;-66
2021/11/07 03:21:23;;;;;;;25.03;19.17;;;;;;;12.14;75.30;102350.31;5089470;28;20180;-66
2021/11/07 03:23:51;;;;;;;29.40;20.83;;;;;;;12.76;75.27;102438.25;5088276;28;20189;-65
2021/11/07 03:26:22;;;;;;;24.83;19.23;;;;;;;12.80;74.75;102427.91;5088771;28;20187;-65
2021/11/07 03:28:49;;;;;;;22.97;18.83;;;;;;;12.74;74.80;102415.63;5086917;28;20687;-65
2021/11/07 03:31:36;;;;;;;23.80;19.80;;;;;;;12.76;75.26;102413.22;5088689;28;20191;-67
2021/11/07 03:34:07;;;;;;;22.57;18.07;;;;;;;12.82;75.00;102383.78;5088379;28;20643;-67
2021/11/07 03:36:44;;;;;;;23.07;18.30;;;;;;;11.83;74.54;102220.63;5088157;28;20186;-67
2021/11/07 03:39:11;;;;;;;19.97;17.27;;;;;;;12.83;74.13;102404.84;5087447;28;20693;-67
2021/11/07 03:41:37;;;;;;;21.77;17.73;;;;;;;12.71;74.14;102402.50;5088458;28;20175;-67
2021/11/07 03:44:03;;;;;;;21.20;17.33;;;;;;;12.46;74.44;102395.47;5088640;28;20645;-67
2021/11/07 03:46:29;;;;;;;20.63;17.33;;;;;;;12.56;74.89;102416.88;5087903;28;20298;-67
2021/11/07 03:48:57;;;;;;;20.10;17.70;;;;;;;12.54;75.22;102411.72;5070044;28;20223;-67
2021/11/07 03:51:24;;;;;;;21.90;17.53;;;;;;;12.60;75.02;102431.59;5083012;28;20270;-67
2021/11/07 03:53:50;;;;;;;19.50;17.40;;;;;;;12.51;74.58;102412.50;5067343;28;20630;-67
2021/11/07 03:56:16;;;;;;;20.87;18.03;;;;;;;12.52;74.91;102414.13;5067049;28;20227;-68
2021/11/07 03:58:42;;;;;;;19.50;17.40;;;;;;;12.59;74.77;102404.94;5068486;28;20206;-67
2021/11/07 04:01:09;;;;;;;21.57;17.83;;;;;;;12.43;75.19;102394.28;5087811;28;20178;-68
2021/11/07 04:03:34;;;;;;;20.23;17.07;;;;;;;12.40;75.72;102399.88;5086941;28;20183;-68
2021/11/07 04:06:00;;;;;;;21.60;17.17;;;;;;;12.50;75.36;102404.59;5087870;28;20182;-67
2021/11/07 04:08:25;;;;;;;20.60;17.73;;;;;;;12.55;75.05;102415.31;5088478;28;20657;-67
2021/11/07 04:10:51;;;;;;;22.30;18.10;;;;;;;11.96;74.93;102299.53;5069512;28;20627;-69
2021/11/07 04:13:17;;;;;;;21.07;18.27;;;;;;;12.57;75.12;102387.88;5074595;28;20676;-66
2021/11/07 04:15:43;;;;;;;21.13;18.07;;;;;;;12.49;75.21;102378.75;5067584;28;20624;-66
2021/11/07 04:18:09;;;;;;;20.80;18.23;;;;;;;12.53;75.01;102374.00;5068086;28;20168;-67
2021/11/07 04:20:34;;;;;;;20.97;18.03;;;;;;;12.60;74.70;102367.63;5067689;28;20179;-67
2021/11/07 04:23:00;;;;;;;22.70;18.40;;;;;;;12.63;75.10;102377.91;5066319;28;20175;-67
2021/11/07 04:25:26;;;;;;;22.20;19.10;;;;;;;12.66;75.04;102391.03;5048967;28;20187;-67
2021/11/07 04:27:51;;;;;;;21.33;17.97;;;;;;;12.64;74.73;102387.84;5068332;28;20204;-67
2021/11/07 04:30:17;;;;;;;24.07;18.40;;;;;;;12.62;74.76;102388.25;5067766;28;20183;-67
2021/11/07 04:32:42;;;;;;;26.60;19.23;;;;;;;12.35;74.61;102351.00;5065325;28;20223;-67
2021/11/07 04:35:09;;;;;;;21.60;18.60;;;;;;;12.71;74.83;102390.59;5067928;28;20186;-67
2021/11/07 04:37:38;;;;;;;21.77;18.53;;;;;;;12.76;74.37;102384.63;5067435;28;20694;-67
2021/11/07 04:40:05;;;;;;;22.13;18.67;;;;;;;12.66;74.35;102368.78;5068309;28;20176;-66
2021/11/07 04:42:31;;;;;;;22.93;19.20;;;;;;;12.65;74.21;102378.31;5070198;28;20191;-67
2021/11/07 04:44:57;;;;;;;26.33;19.87;;;;;;;12.81;74.14;102390.53;5053503;28;20582;-67
2021/11/07 04:47:22;;;;;;;23.80;19.37;;;;;;;12.83;73.90;102381.78;5053853;28;20227;-67
2021/11/07 04:49:51;;;;;;;24.47;19.80;;;;;;;12.84;73.84;102386.16;5071783;28;20187;-67
2021/11/07 04:52:17;;;;;;;23.70;19.00;;;;;;;12.31;74.00;102304.97;5069632;28;20618;-67
2021/11/07 04:54:42;;;;;;;22.77;18.60;;;;;;;12.70;74.08;102370.31;5070367;28;20180;-67
2021/11/07 04:57:08;;;;;;;22.27;18.03;;;;;;;12.78;74.17;102374.66;5070878;28;20574;-67
2021/11/07 04:59:33;;;;;;;23.37;18.43;;;;;;;12.41;73.77;102304.91;5071495;28;20259;-67
2021/11/07 05:01:59;;;;;;;19.70;16.87;;;;;;;12.83;73.42;102388.16;5070757;28;20638;-67
2021/11/07 05:04:24;;;;;;;21.00;17.43;;;;;;;12.87;73.67;102397.25;5069723;28;20176;-67
2021/11/07 05:06:51;;;;;;;26.13;18.27;;;;;;;12.83;73.26;102392.91;5071192;28;20179;-67
2021/11/07 05:09:18;;;;;;;19.53;17.13;;;;;;;12.74;73.37;102381.44;5069500;28;20215;-67
2021/11/07 05:11:44;;;;;;;21.97;18.03;;;;;;;12.76;73.49;102385.41;5070803;28;20189;-66
2021/11/07 05:14:10;;;;;;;19.93;17.83;;;;;;;12.17;73.54;102291.13;5069739;28;20184;-67
2021/11/07 05:16:35;;;;;;;21.50;17.97;;;;;;;11.94;73.49;102258.25;5070241;28;20207;-67
2021/11/07 05:19:02;;;;;;;21.40;17.73;;;;;;;12.47;74.31;102370.03;5052932;28;20261;-66
2021/11/07 05:21:28;;;;;;;21.67;18.63;;;;;;;12.58;74.35;102387.47;5070276;28;20197;-66
2021/11/07 05:23:53;;;;;;;24.43;19.50;;;;;;;12.58;74.17;102395.81;5070296;28;20176;-66
2021/11/07 05:26:19;;;;;;;26.43;19.77;;;;;;;12.07;74.49;102322.50;5072815;28;20229;-67
2021/11/07 05:28:44;;;;;;;22.73;18.07;;;;;;;12.61;74.39;102425.59;5071973;28;20246;-67
2021/11/07 05:31:10;;;;;;;24.13;18.63;;;;;;;12.58;74.43;102389.44;5090602;28;20258;-67
2021/11/07 05:33:36;;;;;;;26.07;18.90;;;;;;;11.96;74.95;102308.66;5089815;28;20555;-66
2021/11/07 05:36:01;;;;;;;21.43;17.87;;;;;;;12.33;75.24;102374.84;5089480;28;20245;-66
2021/11/07 05:38:27;;;;;;;22.17;18.80;;;;;;;12.15;75.46;102358.22;5090360;28;20173;-67
2021/11/07 05:40:52;;;;;;;23.93;19.33;;;;;;;12.37;75.06;102395.91;5091241;28;20189;-67
2021/11/07 05:43:20;;;;;;;24.60;19.90;;;;;;;12.29;75.64;102394.31;5089336;28;20187;-66
2021/11/07 05:45:48;;;;;;;24.03;18.90;;;;;;;12.26;75.60;102397.91;5090593;28;20254;-66
2021/11/07 05:48:13;;;;;;;23.13;18.67;;;;;;;11.78;75.35;102335.69;5089747;28;20187;-66
2021/11/07 05:50:39;;;;;;;24.83;19.73;;;;;;;12.14;75.18;102359.41;5090948;28;20566;-67
2021/11/07 05:53:04;;;;;;;23.07;18.57;;;;;;;12.47;75.28;102405.41;5088153;28;20648;-67
2021/11/07 05:55:30;;;;;;;22.47;18.77;;;;;;;12.50;75.02;102410.16;5089383;28;20195;-68
2021/11/07 05:57:56;;;;;;;23.90;18.63;;;;;;;12.54;74.80;102413.69;5090063;28;20171;-69
2021/11/07 06:00:22;;;;;;;24.70;19.60;;;;;;;12.56;74.17;102411.31;5075499;28;20182;-69
2021/11/07 06:02:48;;;;;;;25.43;18.83;;;;;;;12.55;74.21;102404.19;5069143;28;20243;-68
2021/11/07 06:05:15;;;;;;;23.73;18.13;;;;;;;12.53;74.33;102398.22;5069945;28;20229;-68
2021/11/07 06:07:41;;;;;;;20.97;18.40;;;;;;;12.29;74.00;102346.28;5069548;28;20204;-67
2021/11/07 06:10:07;;;;;;;20.50;18.17;;;;;;;12.65;73.76;102395.00;5070792;28;20603;-67
2021/11/07 06:12:33;;;;;;;22.03;18.80;;;;;;;12.74;73.22;102379.44;5068605;28;20186;-67
2021/11/07 06:14:58;;;;;;;24.57;18.30;;;;;;;12.81;72.58;102387.75;5069337;28;20186;-67
2021/11/07 06:17:24;;;;;;;23.43;18.43;;;;;;;12.81;71.87;102404.44;5069369;28;20601;-67
2021/11/07 06:19:50;;;;;;;25.13;17.87;;;;;;;12.83;71.71;102401.25;5069266;28;20187;-67
2021/11/07 06:22:17;;;;;;;25.03;18.80;;;;;;;12.83;71.44;102421.53;5050395;28;20181;-67
2021/11/07 06:24:42;;;;;;;22.30;17.77;;;;;;;12.86;71.10;102417.94;5068315;28;20245;-67
2021/11/07 06:27:08;;;;;;;22.97;18.40;;;;;;;12.87;70.89;102416.72;5069513;28;20649;-67
2021/11/07 06:29:34;;;;;;;24.03;19.07;;;;;;;12.79;70.98;102411.63;5068851;28;20214;-67
2021/11/07 06:32:00;;;;;;;24.30;18.73;;;;;;;12.80;70.43;102407.66;5069357;28;20188;-67
2021/11/07 06:34:27;;;;;;;25.43;19.67;;;;;;;12.77;70.35;102394.53;5068891;28;20171;-67
2021/11/07 06:36:53;;;;;;;27.73;20.33;;;;;;;12.82;69.75;102424.72;5069548;28;20238;-67
2021/11/07 06:39:20;;;;;;;25.20;19.23;;;;;;;12.71;69.94;102396.94;5068647;28;20188;-67
2021/11/07 06:41:46;;;;;;;28.63;20.87;;;;;;;12.98;69.75;102420.31;5069136;28;20196;-67
2021/11/07 06:44:12;;;;;;;26.13;20.30;;;;;;;13.03;69.64;102408.75;5069016;28;20184;-67
2021/11/07 06:46:38;;;;;;;28.30;20.97;;;;;;;13.07;69.15;102412.28;5080359;28;20476;-67
2021/11/07 06:49:06;;;;;;;26.17;20.57;;;;;;;13.05;69.56;102399.97;5089898;28;20211;-67
2021/11/07 06:51:31;;;;;;;27.17;20.50;;;;;;;12.82;68.89;102360.72;5088336;28;20186;-67
2021/11/07 06:53:57;;;;;;;28.07;20.53;;;;;;;13.19;68.85;102400.69;5089234;28;20653;-67
2021/11/07 06:56:23;;;;;;;27.23;20.27;;;;;;;13.20;68.93;102391.16;5088154;28;20176;-67
2021/11/07 06:58:48;;;;;;;29.37;22.10;;;;;;;13.20;68.54;102396.72;5089733;28;20170;-67
2021/11/07 07:01:14;;;;;;;23.27;20.10;;;;;;;13.27;68.71;102407.78;5088365;28;20675;-67
2021/11/07 07:03:39;;;;;;;29.47;20.40;;;;;;;12.89;68.72;102350.34;5087725;28;20681;-67
2021/11/07 07:06:06;;;;;;;25.67;20.33;;;;;;;13.36;68.47;102422.06;5089184;28;20686;-65
2021/11/07 07:08:42;;;;;;;29.90;20.37;;;;;;;12.89;68.12;102349.56;5089272;28;20214;-65
2021/11/07 07:11:14;;;;;;;26.83;19.57;;;;;;;12.48;68.24;102234.56;5089640;28;20167;-65
2021/11/07 07:13:47;;;;;;;24.30;19.50;;;;;;;13.48;67.69;102396.50;5087461;28;20166;-65
2021/11/07 07:29:12;;;;;;;23.13;19.13;;;;;;;13.10;66.44;102279.84;5088942;28;20280;-65
2021/11/07 07:34:10;;;;;;;26.80;19.63;;;;;;;13.87;66.47;102385.00;5087318;28;20181;-65
2021/11/07 07:36:36;;;;;;;27.80;19.87;;;;;;;13.89;66.05;102371.47;5088604;28;20682;-65
2021/11/07 07:39:03;;;;;;;24.83;19.27;;;;;;;13.19;65.40;102252.34;5088605;28;20179;-64
2021/11/07 07:41:29;;;;;;;25.13;19.77;;;;;;;14.06;65.50;102376.06;5088214;28;20182;-65
2021/11/07 07:43:56;;;;;;;27.90;19.70;;;;;;;14.19;64.63;102377.94;5087599;28;20659;-66
2021/11/07 07:46:22;;;;;;;22.83;18.27;;;;;;;14.28;64.40;102355.13;5088162;28;20490;-67
2021/11/07 07:48:47;;;;;;;23.83;18.47;;;;;;;14.45;63.82;102359.72;5088780;28;20679;-67
2021/11/07 07:51:17;;;;;;;26.40;17.00;;;;;;;14.58;63.20;102353.19;5088606;28;20187;-67
2021/11/07 07:53:45;;;;;;;22.37;17.60;;;;;;;14.70;62.56;102355.41;5087402;28;20235;-67
2021/11/07 07:56:11;;;;;;;23.07;16.63;;;;;;;14.87;61.93;102359.97;5086752;28;20182;-67
2021/11/07 07:58:37;;;;;;;24.17;16.27;;;;;;;14.92;61.49;102375.44;5088088;28;20175;-67
2021/11/07 08:01:05;;;;;;;22.50;16.50;;;;;;;14.99;61.16;102383.72;5086946;28;20179;-67
2021/11/07 08:03:31;;;;;;;21.23;16.03;;;;;;;14.99;60.07;102378.94;5087361;28;20182;-67
2021/11/07 08:05:57;;;;;;;19.50;15.87;;;;;;;14.91;59.25;102371.84;5087257;28;20175;-67
2021/11/07 08:08:22;;;;;;;17.87;14.57;;;;;;;14.52;59.35;102303.84;5088436;28;20202;-68
2021/11/07 08:10:48;;;;;;;20.97;15.13;;;;;;;14.80;59.45;102332.13;5088688;28;20566;-67
2021/11/07 08:13:14;;;;;;;20.93;15.83;;;;;;;14.84;59.96;102332.88;5086949;28;20708;-67
2021/11/07 08:15:39;;;;;;;19.57;15.10;;;;;;;15.04;60.02;102346.94;5088713;28;20187;-67
2021/11/07 08:18:24;;;;;;;18.03;15.33;;;;;;;15.13;59.08;102352.81;5092657;28;20186;-67
2021/11/07 08:20:50;;;;;;;21.90;15.60;;;;;;;15.18;58.93;102349.53;5092335;28;20206;-67
2021/11/07 08:23:17;;;;;;;18.47;15.27;;;;;;;15.06;59.13;102328.56;5090866;28;20183;-67
2021/11/07 08:25:43;;;;;;;24.30;15.33;;;;;;;15.15;59.45;102350.38;5092164;28;20660;-67
2021/11/07 08:28:09;;;;;;;23.40;15.63;;;;;;;15.25;59.39;102353.00;5091276;28;20198;-67
2021/11/07 08:30:40;;;;;;;18.77;14.97;;;;;;;15.32;58.91;102340.94;5092364;28;20171;-67
2021/11/07 08:33:06;;;;;;;21.30;14.83;;;;;;;14.95;58.51;102272.09;5091426;28;20171;-67
2021/11/07 08:35:34;;;;;;;19.13;15.60;;;;;;;14.77;58.36;102231.72;5092047;28;20179;-67
2021/11/07 08:40:30;;;;;;;20.40;16.10;;;;;;;15.51;57.63;102349.41;5091886;28;20236;-68
2021/11/07 09:02:49;;;;;;;16.80;13.60;;;;;;;15.55;54.59;102293.47;5055380;28;20206;-67
2021/11/07 09:05:23;;;;;;;17.37;13.30;;;;;;;15.46;55.03;102296.81;5091508;28;20672;-68
2021/11/07 09:10:36;;;;;;;19.43;14.53;;;;;;;15.44;55.82;102295.66;5090410;28;20167;-68
2021/11/07 09:13:06;;;;;;;18.17;13.90;;;;;;;15.68;55.25;102303.59;5091022;28;20641;-68
2021/11/07 09:15:33;;;;;;;23.33;15.77;;;;;;;15.27;55.75;102244.44;5091004;28;20175;-67
2021/11/07 09:18:00;;;;;;;20.13;15.27;;;;;;;15.22;55.41;102286.81;5109732;28;20557;-68
2021/11/07 09:20:34;;;;;;;18.63;15.07;;;;;;;15.40;56.03;102292.94;5110727;28;20209;-68
2021/11/07 09:23:08;;;;;;;19.27;15.43;;;;;;;15.34;55.40;102252.72;5110490;28;20154;-68
2021/11/07 09:28:36;;;;;;;20.43;14.93;;;;;;;15.59;55.21;102274.63;5061058;28;20622;-67
2021/11/07 09:33:53;;;;;;;20.17;13.23;;;;;;;15.58;54.43;102276.63;5069829;28;20171;-68
2021/11/07 09:36:23;;;;;;;19.07;13.70;;;;;;;15.72;54.30;102276.38;5070729;28;20717;-67
2021/11/07 09:39:38;;;;;;;17.43;13.43;;;;;;;15.84;53.81;102283.34;5071161;28;20178;-68
2021/11/07 09:41:53;;;;;;;20.30;14.47;;;;;;;15.81;53.60;102285.00;5064921;28;20191;-67
2021/11/07 09:44:21;;;;;;;17.40;14.20;;;;;;;15.33;53.93;102258.75;5070096;28;20505;-68
2021/11/07 09:49:21;;;;;;;16.83;12.63;;;;;;;15.50;54.64;102244.44;5071473;28;20200;-67
2021/11/07 09:51:56;;;;;;;19.10;14.03;;;;;;;15.72;54.80;102247.66;5069367;28;20301;-68
2021/11/07 09:54:22;;;;;;;20.80;14.30;;;;;;;15.73;54.51;102266.75;5069690;28;20167;-67
2021/11/07 09:56:53;;;;;;;18.43;14.40;;;;;;;15.72;53.77;102270.78;5068392;28;20191;-68
2021/11/07 09:59:20;;;;;;;19.57;14.03;;;;;;;15.82;53.85;102244.63;5076193;28;20233;-67
2021/11/07 10:01:50;;;;;;;19.90;13.63;;;;;;;15.67;54.00;102250.94;5090411;28;20175;-67
2021/11/07 10:04:17;;;;;;;24.87;15.07;;;;;;;15.70;54.34;102236.09;5088910;28;20181;-67
2021/11/07 10:06:47;;;;;;;21.87;14.13;;;;;;;15.90;53.92;102226.50;5090489;28;20186;-67
2021/11/07 10:09:32;;;;;;;18.07;13.83;;;;;;;15.81;53.71;102215.09;5090612;28;20206;-67
2021/11/07 10:12:01;;;;;;;18.33;13.97;;;;;;;15.93;53.84;102217.25;5089842;28;20170;-68
2021/11/07 10:14:40;;;;;;;19.50;13.23;;;;;;;16.11;53.51;102214.88;5088379;28;20175;-67
2021/11/07 10:17:23;;;;;;;18.53;13.90;;;;;;;16.01;53.41;102179.53;5100855;28;20213;-66
2021/11/07 10:20:24;;;;;;;17.93;13.10;;;;;;;16.27;52.95;102216.91;5111382;28;20212;-67
2021/11/07 10:22:58;;;;;;;20.53;13.97;;;;;;;16.08;53.51;102192.56;5109137;28;20193;-68
2021/11/07 10:25:36;;;;;;;20.60;14.27;;;;;;;16.29;53.23;102228.47;5109303;28;20617;-68
2021/11/07 10:28:16;;;;;;;21.47;14.47;;;;;;;16.48;53.27;102219.25;5092932;28;20204;-65
2021/11/07 10:30:49;;;;;;;18.37;13.97;;;;;;;16.57;52.69;102204.69;5090717;28;20189;-68
2021/11/07 10:33:38;;;;;;;20.67;14.87;;;;;;;16.34;52.63;102200.00;5088651;28;20163;-68
2021/11/07 10:44:19;;;;;;;18.47;14.43;;;;;;;16.68;52.17;102181.59;5088736;28;20239;-66
2021/11/07 10:52:26;;;;;;;18.50;14.83;;;;;;;16.71;52.11;102149.16;5088663;28;20396;-66
2021/11/07 10:54:53;;;;;;;20.53;15.43;;;;;;;16.37;52.23;102068.41;5088623;28;20696;-66
2021/11/07 10:57:28;;;;;;;19.37;14.83;;;;;;;16.80;52.08;102121.31;5088200;28;20204;-66
2021/11/07 11:00:12;;;;;;;21.03;15.10;;;;;;;16.78;51.66;102112.56;5098802;28;20207;-66
2021/11/07 11:02:39;;;;;;;20.13;14.37;;;;;;;16.62;51.88;102103.41;5109071;28;20272;-66
2021/11/07 11:05:08;;;;;;;19.67;15.43;;;;;;;16.52;52.42;102105.22;5109688;28;20177;-68
2021/11/07 11:07:48;;;;;;;19.50;15.43;;;;;;;16.35;52.59;102118.38;5108932;28;20214;-66
2021/11/07 11:10:19;;;;;;;22.27;16.27;;;;;;;16.42;52.66;102111.88;5109718;28;20177;-67
2021/11/07 11:13:01;;;;;;;22.00;16.27;;;;;;;16.67;51.94;102114.84;5108716;28;20183;-66
2021/11/07 11:15:36;;;;;;;20.03;15.90;;;;;;;16.53;52.44;102109.59;5107616;28;20177;-66
2021/11/07 11:18:35;;;;;;;21.97;16.10;;;;;;;16.51;52.59;102103.66;5088206;28;20596;-66
2021/11/07 11:21:22;;;;;;;24.17;15.87;;;;;;;16.66;52.52;102090.88;5088527;28;20222;-66
2021/11/07 11:24:09;;;;;;;19.33;14.87;;;;;;;16.71;52.49;102110.72;5088476;28;20167;-66
2021/11/07 11:31:50;;;;;;;19.47;14.47;;;;;;;16.63;52.99;102108.53;5109338;28;20299;-66
2021/11/07 11:34:19;;;;;;;23.23;15.87;;;;;;;16.67;52.59;102126.84;5108396;28;20610;-66
2021/11/07 11:36:56;;;;;;;20.53;15.33;;;;;;;16.70;53.21;102113.97;5108842;28;20189;-66
2021/11/07 11:39:28;;;;;;;20.87;16.10;;;;;;;16.80;52.84;102098.94;5108022;28;20234;-68
2021/11/07 11:44:42;;;;;;;23.97;15.67;;;;;;;17.03;52.52;102133.09;5109126;28;20176;-66
2021/11/07 11:47:30;;;;;;;23.43;16.50;;;;;;;16.65;52.38;102064.91;5108876;28;20448;-66
2021/11/07 11:52:54;;;;;;;21.93;16.00;;;;;;;16.63;53.29;102125.34;5107843;28;20201;-67
2021/11/07 11:55:35;;;;;;;19.30;14.83;;;;;;;16.23;54.78;102105.09;5107147;28;20196;-68
2021/11/07 12:03:40;;;;;;;21.23;15.60;;;;;;;15.98;54.73;102012.63;5087446;28;20410;-68
2021/11/07 12:09:29;;;;;;;20.57;14.87;;;;;;;16.71;53.98;102060.34;5072807;28;20209;-68
2021/11/07 12:12:13;;;;;;;19.67;14.73;;;;;;;16.79;54.49;102084.13;5069439;28;20175;-67
2021/11/07 12:14:57;;;;;;;18.43;14.33;;;;;;;16.55;53.87;102074.34;5087795;28;20175;-66
2021/11/07 12:17:35;;;;;;;21.23;14.97;;;;;;;16.48;54.39;102076.53;5079790;28;20202;-66
2021/11/07 12:20:20;;;;;;;20.53;16.23;;;;;;;16.27;54.32;102041.47;5106293;28;20168;-68
2021/11/07 12:22:46;;;;;;;20.47;15.97;;;;;;;16.24;55.06;102008.00;5106615;28;20166;-69
2021/11/07 12:25:14;;;;;;;20.63;15.40;;;;;;;16.53;55.39;102042.44;5107901;28;20664;-68
2021/11/07 12:27:54;;;;;;;21.87;15.40;;;;;;;16.65;55.02;102013.75;5094458;28;20192;-66
2021/11/07 12:30:25;;;;;;;20.77;16.37;;;;;;;16.79;55.22;102044.13;5087922;28;20200;-66
2021/11/07 12:33:23;;;;;;;23.00;15.67;;;;;;;16.88;55.09;102047.09;5086434;28;20178;-66
2021/11/07 12:41:27;;;;;;;20.93;16.13;;;;;;;17.03;53.99;102025.88;5088340;28;20474;-68
2021/11/07 12:44:02;;;;;;;24.40;16.40;;;;;;;17.06;53.70;102003.34;5086753;28;20613;-66
2021/11/07 12:47:04;;;;;;;19.70;15.00;;;;;;;17.13;53.63;102017.19;5069718;28;20704;-66
2021/11/07 12:49:31;;;;;;;19.63;16.03;;;;;;;17.03;53.73;102020.28;5087882;28;20542;-68
2021/11/07 12:52:05;;;;;;;20.00;15.27;;;;;;;17.04;53.29;102021.84;5087877;28;20193;-68
2021/11/07 12:54:42;;;;;;;19.93;15.33;;;;;;;16.17;53.59;101868.31;5086194;28;20178;-69
2021/11/07 12:57:07;;;;;;;19.40;14.87;;;;;;;16.92;53.71;102008.59;5087691;28;20179;-66
2021/11/07 12:59:37;;;;;;;21.23;15.93;;;;;;;16.86;53.78;102019.53;5093715;28;20178;-66
2021/11/07 13:02:04;;;;;;;21.87;15.50;;;;;;;16.85;54.29;102014.41;5108653;28;20179;-68
2021/11/07 13:04:42;;;;;;;21.50;15.90;;;;;;;16.90;53.71;102003.41;5110286;28;20182;-66
2021/11/07 13:07:13;;;;;;;21.90;15.17;;;;;;;16.91;53.96;101993.78;5112858;28;20170;-66
2021/11/07 13:09:46;;;;;;;21.67;15.17;;;;;;;16.86;54.05;101991.53;5100553;28;20198;-68
2021/11/07 13:12:33;;;;;;;21.47;16.23;;;;;;;16.45;54.22;101963.47;5090402;28;20168;-68
2021/11/07 13:17:43;;;;;;;21.40;14.90;;;;;;;16.55;54.78;102006.41;4945049;28;80124;-66
2021/11/07 13:25:48;;;;;;;20.90;14.50;;;;;;;16.02;55.87;101931.44;5069066;28;20253;-66
2021/11/07 13:28:38;;;;;;;23.97;15.37;;;;;;;16.50;55.23;101995.75;4896726;28;86125;-68
2021/11/07 13:31:17;;;;;;;18.97;15.03;;;;;;;15.80;55.20;101878.09;5053185;28;20766;-68
2021/11/07 13:33:44;;;;;;;20.83;16.10;;;;;;;16.59;55.23;102005.09;5000887;28;94743;-68
2021/11/07 13:36:12;;;;;;;24.10;16.57;;;;;;;16.39;55.32;101976.44;4499903;28;20260;-66
2021/11/07 13:38:34;;;;;;;23.80;16.57;;;;;;;16.38;55.75;101994.41;1940717;28;20584;-67
2021/11/07 13:39:37;;;;;;;25.60;17.53;;;;;;;16.38;55.48;102004.81;1970242;28;84300;-68